Time;durP1;ratioP1;P1;durP2;ratioP2;P2;SDS_P1;SDS_P2;PMS_P1;PMS_P2;Temp;Humidity;BMP_temperature;BMP_pressure;BME280_temperature;BME280_humidity;BME280_pressure;Samples;Min_cycle;Max_cycle;Signal;HPM_P1;HPM_P2
2023/03/12 00:00:40;;;;;;;12.90;6.03;;;1.50;99.90;;;;;;5011730;28;20033;-73
2023/03/12 00:03:06;;;;;;;8.87;5.23;;;1.50;99.90;;;;;;5011712;28;20406;-74
2023/03/12 00:05:35;;;;;;;8.40;5.87;;;1.50;99.90;;;;;;5011781;28;20056;-73
2023/03/12 00:08:02;;;;;;;9.60;6.10;;;1.60;99.90;;;;;;5007150;28;20729;-73
2023/03/12 00:10:28;;;;;;;10.27;5.67;;;1.60;99.90;;;;;;4988859;28;20036;-73
2023/03/12 00:12:55;;;;;;;9.67;6.83;;;1.60;99.90;;;;;;5006617;28;20048;-73
2023/03/12 00:15:22;;;;;;;12.03;6.23;;;1.60;99.90;;;;;;5010170;28;20074;-73
2023/03/12 00:17:48;;;;;;;10.87;5.77;;;1.60;99.90;;;;;;4990461;28;20044;-73
2023/03/12 00:20:15;;;;;;;8.40;5.70;;;1.60;99.90;;;;;;4986056;28;20048;-73
2023/03/12 00:22:42;;;;;;;11.00;6.30;;;1.70;99.90;;;;;;4993069;28;20499;-73
2023/03/12 00:25:14;;;;;;;8.77;5.77;;;1.70;99.90;;;;;;5008734;28;20076;-73
2023/03/12 00:27:41;;;;;;;10.02;5.32;;;1.70;99.90;;;;;;5010267;28;20045;-73
2023/03/12 00:30:09;;;;;;;7.67;5.50;;;1.70;99.90;;;;;;5004845;28;20405;-73
2023/03/12 00:32:36;;;;;;;7.73;5.60;;;1.70;99.90;;;;;;5009411;28;20412;-73
2023/03/12 00:35:04;;;;;;;7.90;6.07;;;1.80;99.90;;;;;;5008173;28;20075;-73
2023/03/12 00:37:32;;;;;;;7.23;5.60;;;1.80;99.90;;;;;;4998249;28;20033;-73
2023/03/12 00:40:00;;;;;;;6.47;4.10;;;1.80;99.90;;;;;;4997743;28;20049;-73
2023/03/12 00:42:27;;;;;;;8.63;6.00;;;1.80;99.90;;;;;;4990326;28;20112;-73
2023/03/12 00:44:54;;;;;;;6.23;5.53;;;1.80;99.90;;;;;;5010341;28;20388;-73
2023/03/12 00:47:20;;;;;;;10.80;5.83;;;1.80;99.90;;;;;;5006696;28;20053;-73
2023/03/12 00:49:46;;;;;;;8.67;6.17;;;1.80;99.90;;;;;;4999768;28;20052;-73
2023/03/12 00:52:13;;;;;;;6.67;4.47;;;1.80;99.90;;;;;;4992016;28;20040;-73
2023/03/12 00:54:39;;;;;;;10.40;5.67;;;1.80;99.90;;;;;;5009583;28;20087;-73
2023/03/12 00:57:06;;;;;;;9.77;5.73;;;1.80;99.90;;;;;;5009656;28;20049;-73
2023/03/12 00:59:34;;;;;;;8.07;5.07;;;1.90;99.90;;;;;;4999746;28;20048;-73
2023/03/12 01:02:00;;;;;;;8.87;5.23;;;1.90;99.90;;;;;;4976724;28;20037;-73
2023/03/12 01:04:27;;;;;;;8.93;5.40;;;1.90;99.90;;;;;;5009162;28;20041;-73
2023/03/12 01:06:54;;;;;;;11.20;5.33;;;1.90;99.90;;;;;;4993245;28;20045;-73
2023/03/12 01:09:20;;;;;;;12.60;6.40;;;1.90;99.90;;;;;;5002476;28;20041;-73
2023/03/12 01:11:47;;;;;;;8.67;5.17;;;2.00;99.90;;;;;;4995172;28;20087;-73
2023/03/12 01:14:13;;;;;;;9.00;5.03;;;2.00;99.90;;;;;;5014003;28;20040;-73
2023/03/12 01:16:39;;;;;;;8.03;5.77;;;2.00;99.90;;;;;;4982179;28;20037;-73
2023/03/12 01:19:06;;;;;;;4.93;3.77;;;2.00;99.90;;;;;;4989269;28;20041;-73
2023/03/12 01:21:32;;;;;;;12.93;5.33;;;2.00;99.90;;;;;;5007615;28;20532;-73
2023/03/12 01:23:58;;;;;;;5.10;4.60;;;2.00;99.90;;;;;;4983534;28;20036;-73
2023/03/12 01:26:24;;;;;;;9.87;4.87;;;2.00;99.90;;;;;;4976705;28;20036;-73
2023/03/12 01:28:51;;;;;;;7.23;4.70;;;2.00;99.90;;;;;;5000979;28;20728;-73
2023/03/12 01:31:18;;;;;;;6.77;5.07;;;2.00;99.90;;;;;;5009670;28;20056;-73
2023/03/12 01:33:49;;;;;;;9.33;5.13;;;1.90;99.90;;;;;;5009716;28;20037;-73
2023/03/12 01:36:28;;;;;;;5.53;3.77;;;1.90;99.90;;;;;;5010145;28;20052;-73
2023/03/12 01:38:56;;;;;;;7.20;4.30;;;1.90;99.90;;;;;;5004359;28;20037;-73
2023/03/12 01:41:25;;;;;;;8.57;4.20;;;1.90;99.90;;;;;;4992522;28;20500;-73
2023/03/12 01:43:52;;;;;;;10.63;5.40;;;1.90;99.90;;;;;;4997853;28;20041;-73
2023/03/12 01:46:24;;;;;;;8.77;5.37;;;1.80;99.90;;;;;;5012914;28;20041;-73
2023/03/12 01:49:13;;;;;;;8.98;4.80;;;1.80;99.90;;;;;;5000263;28;20057;-73
2023/03/12 01:51:57;;;;;;;7.23;4.53;;;1.80;99.90;;;;;;5001187;28;20046;-73
2023/03/12 01:54:30;;;;;;;6.43;3.80;;;1.70;99.90;;;;;;5018597;28;20064;-73
2023/03/12 01:56:57;;;;;;;8.02;4.45;;;1.70;99.90;;;;;;5013801;28;20484;-73
2023/03/12 01:59:29;;;;;;;6.30;3.90;;;1.60;99.90;;;;;;4987941;28;20063;-73
2023/03/12 02:01:56;;;;;;;7.63;4.18;;;1.60;99.90;;;;;;4987060;28;20042;-73
2023/03/12 02:04:26;;;;;;;6.00;3.63;;;1.60;99.90;;;;;;4997830;28;20041;-73
2023/03/12 02:07:10;;;;;;;4.50;3.60;;;1.50;99.90;;;;;;5003670;28;20037;-73
2023/03/12 02:09:43;;;;;;;4.53;2.93;;;1.50;99.90;;;;;;5003204;28;20037;-73
2023/03/12 02:12:10;;;;;;;;;;;1.50;99.90;;;;;;5013174;28;20037;-73
2023/03/12 02:14:37;;;;;;;4.93;2.70;;;1.50;99.90;;;;;;5013083;28;19912;-73
2023/03/12 02:17:04;;;;;;;4.40;2.57;;;1.50;99.90;;;;;;5015060;28;20443;-73
2023/03/12 02:20:00;;;;;;;5.83;3.57;;;1.60;99.90;;;;;;5007659;28;20044;-73
2023/03/12 02:22:28;;;;;;;6.60;3.97;;;1.60;99.90;;;;;;5003086;28;20045;-73
2023/03/12 02:25:13;;;;;;;6.53;3.87;;;1.60;99.90;;;;;;5012626;28;20465;-73
2023/03/12 02:27:40;;;;;;;6.90;3.87;;;1.60;99.90;;;;;;5013249;28;20045;-73
2023/03/12 02:30:07;;;;;;;5.30;3.70;;;1.60;99.90;;;;;;5002534;28;20045;-73
2023/03/12 02:32:37;;;;;;;5.27;3.53;;;1.70;99.90;;;;;;5003484;28;20422;-73
2023/03/12 02:35:05;;;;;;;6.90;4.00;;;1.70;99.90;;;;;;5001655;28;20055;-73
2023/03/12 02:37:31;;;;;;;6.60;3.57;;;1.70;99.90;;;;;;5013391;28;20476;-73
2023/03/12 02:40:12;;;;;;;8.87;4.17;;;1.80;99.90;;;;;;5003675;28;20044;-73
2023/03/12 02:42:39;;;;;;;6.03;3.80;;;1.80;99.90;;;;;;4994448;28;20046;-73
2023/03/12 02:45:06;;;;;;;5.63;3.27;;;1.80;99.90;;;;;;5004007;28;20041;-73
2023/03/12 02:47:32;;;;;;;6.90;3.63;;;1.90;99.90;;;;;;4997609;28;20052;-73
2023/03/12 02:49:58;;;;;;;6.33;3.70;;;1.90;99.90;;;;;;4993229;28;20050;-73
2023/03/12 02:52:25;;;;;;;7.40;4.10;;;2.00;99.90;;;;;;4992697;28;21025;-73
2023/03/12 02:54:51;;;;;;;7.37;3.37;;;2.00;99.90;;;;;;5012575;28;20052;-73
2023/03/12 02:57:18;;;;;;;6.00;3.00;;;2.00;99.90;;;;;;5007352;28;20507;-73
2023/03/12 02:59:44;;;;;;;5.00;3.03;;;2.10;99.90;;;;;;5004949;28;22721;-73
2023/03/12 03:02:11;;;;;;;4.53;1.83;;;2.10;99.90;;;;;;4980183;28;20037;-73
2023/03/12 03:04:38;;;;;;;5.67;2.60;;;2.20;99.90;;;;;;5007247;28;20037;-73
2023/03/12 03:07:05;;;;;;;4.80;2.80;;;2.20;99.90;;;;;;5000938;28;20115;-73
2023/03/12 03:09:31;;;;;;;7.50;2.37;;;2.20;99.90;;;;;;4968744;28;20064;-73
2023/03/12 03:11:58;;;;;;;5.00;2.53;;;2.20;99.90;;;;;;5003399;28;20404;-73
2023/03/12 03:14:26;;;;;;;5.37;2.67;;;2.20;99.90;;;;;;5012545;28;20437;-73
2023/03/12 03:16:53;;;;;;;6.97;2.57;;;2.30;99.90;;;;;;5007801;28;20362;-73
2023/03/12 03:19:22;;;;;;;4.77;2.83;;;2.30;99.90;;;;;;4977991;28;20060;-73
2023/03/12 03:21:48;;;;;;;3.60;1.80;;;2.30;99.90;;;;;;4998568;28;20049;-73
2023/03/12 03:24:15;;;;;;;7.00;2.63;;;2.30;99.90;;;;;;4996803;28;20038;-73
2023/03/12 03:26:43;;;;;;;4.40;2.53;;;2.30;99.90;;;;;;5009237;28;20526;-73
2023/03/12 03:29:10;;;;;;;6.17;3.10;;;2.30;99.90;;;;;;5002744;28;20045;-73
2023/03/12 03:31:36;;;;;;;6.13;3.20;;;2.30;99.90;;;;;;5010657;28;20391;-73
2023/03/12 03:34:03;;;;;;;8.20;2.87;;;2.30;99.90;;;;;;4996568;28;20032;-73
2023/03/12 03:36:29;;;;;;;7.93;4.37;;;2.30;99.90;;;;;;5008694;28;20049;-73
2023/03/12 03:39:06;;;;;;;5.03;3.60;;;2.30;99.90;;;;;;5007097;28;20615;-73
2023/03/12 03:41:33;;;;;;;6.90;4.03;;;2.30;99.90;;;;;;5015164;28;20040;-73
2023/03/12 03:44:00;;;;;;;11.63;4.17;;;2.30;99.90;;;;;;5011594;28;20420;-73
2023/03/12 03:46:28;;;;;;;10.37;4.07;;;2.30;99.90;;;;;;5010416;28;20056;-73
2023/03/12 03:49:00;;;;;;;6.13;3.27;;;2.30;99.90;;;;;;4994360;28;20052;-73
2023/03/12 03:51:28;;;;;;;7.97;3.53;;;2.30;99.90;;;;;;5009260;28;20053;-73
2023/03/12 03:53:59;;;;;;;7.87;3.93;;;2.40;99.90;;;;;;5012714;28;20060;-73
2023/03/12 03:56:26;;;;;;;9.00;3.63;;;2.40;99.90;;;;;;5013239;28;20049;-73
2023/03/12 03:58:52;;;;;;;7.97;3.40;;;2.40;99.90;;;;;;5001886;28;20045;-73
2023/03/12 04:01:20;;;;;;;7.47;3.77;;;2.40;99.90;;;;;;4992943;28;20037;-73
2023/03/12 04:03:48;;;;;;;6.30;4.13;;;2.40;99.90;;;;;;4992073;28;20040;-73
2023/03/12 04:06:14;;;;;;;6.93;3.87;;;2.40;99.90;;;;;;5010630;28;20042;-73
2023/03/12 04:08:41;;;;;;;7.87;4.87;;;2.40;99.90;;;;;;4988890;28;20053;-73
2023/03/12 04:11:14;;;;;;;6.73;3.53;;;2.40;99.90;;;;;;4999693;28;20071;-73
2023/03/12 04:13:42;;;;;;;6.13;3.73;;;2.40;99.90;;;;;;5013326;28;20049;-73
2023/03/12 04:16:09;;;;;;;7.07;2.90;;;2.30;99.90;;;;;;5008566;28;20052;-73
2023/03/12 04:18:36;;;;;;;9.82;4.40;;;2.30;99.90;;;;;;5002576;28;20048;-73
2023/03/12 04:21:05;;;;;;;6.40;4.00;;;2.30;99.90;;;;;;5000095;28;20044;-73
2023/03/12 04:23:32;;;;;;;7.40;4.47;;;2.30;99.90;;;;;;5009804;28;20381;-73
2023/03/12 04:25:59;;;;;;;9.07;4.67;;;2.30;99.90;;;;;;5012591;28;20755;-73
2023/03/12 04:28:25;;;;;;;7.13;4.50;;;2.30;99.90;;;;;;5001478;28;20713;-73
2023/03/12 04:30:58;;;;;;;9.60;4.83;;;2.30;99.90;;;;;;5005279;28;20088;-73
2023/03/12 04:33:29;;;;;;;;;;;2.40;99.90;;;;;;5017441;28;20033;-73
2023/03/12 04:35:56;;;;;;;8.67;3.40;;;2.40;99.90;;;;;;5013670;28;19924;-73
2023/03/12 04:38:24;;;;;;;6.37;4.17;;;2.40;99.90;;;;;;4999642;28;20060;-73
2023/03/12 04:41:01;;;;;;;6.07;4.43;;;2.40;99.90;;;;;;5007906;28;20045;-73
2023/03/12 04:43:29;;;;;;;9.13;4.10;;;2.40;99.90;;;;;;4982733;28;20072;-73
2023/03/12 04:45:56;;;;;;;4.57;3.47;;;2.40;99.90;;;;;;4993936;28;20060;-73
2023/03/12 04:48:24;;;;;;;10.70;3.93;;;2.40;99.90;;;;;;5021936;28;20052;-73
2023/03/12 04:50:52;;;;;;;9.57;4.30;;;2.40;99.90;;;;;;5006682;28;20459;-73
2023/03/12 04:53:19;;;;;;;8.00;4.55;;;2.50;99.90;;;;;;5005317;28;20048;-73
2023/03/12 04:55:47;;;;;;;9.10;5.33;;;2.50;99.90;;;;;;4992859;28;20042;-73
2023/03/12 04:58:16;;;;;;;10.30;4.23;;;2.50;99.90;;;;;;4999451;28;20060;-73
2023/03/12 05:00:42;;;;;;;8.57;4.67;;;2.50;99.90;;;;;;5010399;28;20634;-74
2023/03/12 05:03:09;;;;;;;6.30;4.10;;;2.60;99.90;;;;;;5008302;28;20045;-74
2023/03/12 05:05:35;;;;;;;11.43;4.87;;;2.60;99.90;;;;;;4991728;28;20056;-73
2023/03/12 05:08:03;;;;;;;8.67;4.30;;;2.60;99.90;;;;;;4984190;28;20037;-73
2023/03/12 05:10:31;;;;;;;8.53;4.83;;;2.60;99.90;;;;;;5002344;28;20053;-73
2023/03/12 05:12:57;;;;;;;6.23;3.60;;;2.70;99.90;;;;;;5007661;28;20024;-73
2023/03/12 05:15:25;;;;;;;7.45;4.07;;;2.70;99.90;;;;;;5010892;28;20036;-73
2023/03/12 05:17:52;;;;;;;9.50;4.83;;;2.70;99.90;;;;;;4991741;28;20029;-74
2023/03/12 05:20:18;;;;;;;8.20;3.80;;;2.70;99.90;;;;;;4999667;28;21046;-74
2023/03/12 05:22:47;;;;;;;9.20;3.60;;;2.70;99.90;;;;;;4997180;28;20033;-73
2023/03/12 05:25:14;;;;;;;9.70;3.80;;;2.70;99.90;;;;;;4989289;28;20033;-73
2023/03/12 05:27:40;;;;;;;8.63;3.47;;;2.70;99.90;;;;;;4979389;28;20084;-73
2023/03/12 05:30:08;;;;;;;5.87;3.07;;;2.70;99.90;;;;;;4999875;28;20052;-73
2023/03/12 05:32:35;;;;;;;5.93;2.97;;;2.70;99.90;;;;;;5011506;28;20045;-73
2023/03/12 05:35:02;;;;;;;6.60;3.00;;;2.70;99.90;;;;;;4986374;28;20033;-73
2023/03/12 05:37:29;;;;;;;6.50;2.83;;;2.70;99.90;;;;;;5012319;28;20514;-73
2023/03/12 05:39:55;;;;;;;4.97;2.80;;;2.70;99.90;;;;;;4988222;28;20534;-73
2023/03/12 05:42:23;;;;;;;8.90;3.00;;;2.70;99.90;;;;;;5011702;28;20056;-73
2023/03/12 05:44:51;;;;;;;6.67;2.70;;;2.70;99.90;;;;;;5012523;28;20557;-73
2023/03/12 05:47:19;;;;;;;4.70;2.43;;;2.70;99.90;;;;;;5009509;28;20064;-73
2023/03/12 05:49:46;;;;;;;8.20;3.10;;;2.70;99.90;;;;;;4976667;28;20045;-73
2023/03/12 05:52:13;;;;;;;6.57;3.40;;;2.70;99.90;;;;;;4996577;28;20048;-73
2023/03/12 05:54:39;;;;;;;4.87;3.13;;;2.70;99.90;;;;;;4989185;28;20049;-73
2023/03/12 05:57:06;;;;;;;6.30;2.30;;;2.70;99.90;;;;;;5014630;28;20045;-73
2023/03/12 05:59:33;;;;;;;9.37;3.13;;;2.80;99.90;;;;;;5003070;28;20072;-73
2023/03/12 06:02:00;;;;;;;6.87;2.37;;;2.80;99.90;;;;;;5013394;28;20052;-73
2023/03/12 06:04:27;;;;;;;4.83;2.70;;;2.80;99.90;;;;;;5001336;28;20037;-73
2023/03/12 06:06:53;;;;;;;9.07;3.10;;;2.80;99.90;;;;;;5030041;28;20075;-73
2023/03/12 06:09:19;;;;;;;5.30;3.15;;;2.80;99.90;;;;;;4993106;28;20072;-73
2023/03/12 06:11:46;;;;;;;7.50;4.07;;;2.80;99.90;;;;;;5013879;28;20507;-73
2023/03/12 06:14:13;;;;;;;5.47;3.57;;;2.80;99.90;;;;;;4996072;28;20044;-73
2023/03/12 06:16:39;;;;;;;9.30;4.38;;;2.80;99.90;;;;;;5011517;28;20049;-73
2023/03/12 06:19:06;;;;;;;12.13;4.80;;;2.80;99.90;;;;;;4999944;28;20428;-73
2023/03/12 06:21:34;;;;;;;13.03;4.83;;;2.80;99.90;;;;;;5016256;28;20041;-73
2023/03/12 06:24:01;;;;;;;7.30;4.57;;;2.90;99.90;;;;;;5012333;28;20041;-73
2023/03/12 06:26:37;;;;;;;8.10;4.70;;;2.90;99.90;;;;;;4990045;28;20045;-73
2023/03/12 06:29:03;;;;;;;7.07;4.73;;;2.90;99.90;;;;;;5004556;28;20057;-73
2023/03/12 06:31:30;;;;;;;8.57;4.90;;;2.90;99.90;;;;;;5016459;28;20894;-73
2023/03/12 06:33:56;;;;;;;7.47;4.87;;;3.00;99.90;;;;;;4995703;28;20033;-73
2023/03/12 06:36:23;;;;;;;8.37;5.30;;;2.90;99.90;;;;;;5019204;28;20125;-73
2023/03/12 06:38:49;;;;;;;9.50;4.20;;;3.00;99.90;;;;;;5005051;28;20039;-73
2023/03/12 06:41:18;;;;;;;8.40;4.47;;;3.00;99.90;;;;;;5028899;28;20041;-74
2023/03/12 06:43:44;;;;;;;11.57;5.88;;;2.90;99.90;;;;;;4993892;28;21001;-73
2023/03/12 06:46:13;;;;;;;8.03;4.50;;;2.90;99.90;;;;;;5011241;28;20448;-73
2023/03/12 06:48:40;;;;;;;6.10;3.63;;;2.90;99.90;;;;;;4987441;28;20045;-74
2023/03/12 06:51:08;;;;;;;9.63;4.25;;;2.90;99.90;;;;;;5014371;28;20501;-73
2023/03/12 06:53:34;;;;;;;7.57;3.53;;;2.90;99.90;;;;;;4996206;28;20421;-73
2023/03/12 06:56:01;;;;;;;9.83;4.23;;;2.90;99.90;;;;;;4992914;28;20542;-73
2023/03/12 06:58:28;;;;;;;8.77;4.17;;;2.90;99.90;;;;;;4997939;28;20048;-73
2023/03/12 07:00:54;;;;;;;6.77;3.90;;;2.90;99.90;;;;;;5009990;28;20056;-74
2023/03/12 07:03:21;;;;;;;11.07;5.10;;;2.90;99.90;;;;;;4994057;28;20037;-73
2023/03/12 07:05:49;;;;;;;8.57;3.93;;;3.00;99.90;;;;;;4994972;28;20327;-73
2023/03/12 07:08:17;;;;;;;10.13;4.57;;;3.00;99.90;;;;;;5002048;28;20044;-73
2023/03/12 07:10:44;;;;;;;6.53;3.90;;;3.00;99.90;;;;;;5027686;28;20519;-73
2023/03/12 07:13:12;;;;;;;9.57;5.53;;;3.00;99.90;;;;;;4994719;28;23672;-73
2023/03/12 07:15:39;;;;;;;7.80;4.03;;;3.10;99.90;;;;;;5007896;28;20037;-73
2023/03/12 07:18:07;;;;;;;9.77;4.87;;;3.10;99.90;;;;;;5009319;28;20037;-73
2023/03/12 07:20:39;;;;;;;11.43;5.63;;;3.10;99.90;;;;;;5007790;28;20052;-74
2023/03/12 07:23:05;;;;;;;9.20;4.50;;;3.20;99.90;;;;;;5005818;28;20041;-74
2023/03/12 07:25:36;;;;;;;9.77;4.93;;;3.20;99.90;;;;;;5008349;28;20051;-75
2023/03/12 07:28:03;;;;;;;9.43;5.60;;;3.30;99.90;;;;;;5003805;28;20049;-74
2023/03/12 07:30:33;;;;;;;8.87;5.10;;;3.30;99.90;;;;;;4990422;28;20029;-74
2023/03/12 07:33:00;;;;;;;10.57;5.17;;;3.30;99.90;;;;;;5012215;28;20039;-74
2023/03/12 07:35:27;;;;;;;9.43;4.85;;;3.30;99.90;;;;;;5008968;28;20044;-74
2023/03/12 07:37:53;;;;;;;9.97;6.30;;;3.30;99.90;;;;;;4988403;28;20041;-73
2023/03/12 07:40:20;;;;;;;8.33;5.67;;;3.40;99.90;;;;;;5004531;28;20558;-74
2023/03/12 07:42:46;;;;;;;14.55;8.10;;;3.40;99.90;;;;;;5011809;28;20625;-74
2023/03/12 07:45:12;;;;;;;9.67;5.50;;;3.40;99.90;;;;;;5009946;28;20029;-73
2023/03/12 07:47:39;;;;;;;15.73;7.00;;;3.40;99.90;;;;;;5008448;28;20480;-73
2023/03/12 07:50:05;;;;;;;8.67;5.47;;;3.40;99.90;;;;;;5003019;28;20539;-73
2023/03/12 07:52:32;;;;;;;10.20;5.25;;;3.40;99.90;;;;;;5010438;28;20033;-73
2023/03/12 07:54:58;;;;;;;15.90;6.50;;;3.40;99.90;;;;;;4992000;28;20041;-73
2023/03/12 07:57:24;;;;;;;18.13;8.23;;;3.40;99.90;;;;;;4993350;28;20827;-73
2023/03/12 07:59:51;;;;;;;14.37;8.03;;;3.40;99.90;;;;;;4986965;28;20049;-73
2023/03/12 08:02:17;;;;;;;14.95;7.53;;;3.40;99.90;;;;;;5011010;28;20052;-73
2023/03/12 08:04:43;;;;;;;16.15;7.43;;;3.40;99.90;;;;;;5012298;28;20025;-73
2023/03/12 08:07:10;;;;;;;16.17;7.40;;;3.40;99.90;;;;;;5012199;28;20047;-73
2023/03/12 08:09:37;;;;;;;13.13;7.47;;;3.40;99.90;;;;;;5016495;28;20404;-72
2023/03/12 08:12:05;;;;;;;10.23;6.37;;;3.40;99.90;;;;;;5015096;28;20048;-72
2023/03/12 08:14:31;;;;;;;14.15;7.22;;;3.40;99.90;;;;;;5010630;28;20401;-72
2023/03/12 08:16:58;;;;;;;13.65;6.95;;;3.50;99.90;;;;;;5010380;28;20712;-73
2023/03/12 08:19:25;;;;;;;10.97;6.87;;;3.50;99.90;;;;;;5001959;28;20049;-72
2023/03/12 08:21:52;;;;;;;10.63;6.27;;;3.50;99.90;;;;;;5006335;28;20037;-72
2023/03/12 08:24:20;;;;;;;14.17;6.70;;;3.50;99.90;;;;;;5006004;28;20401;-72
2023/03/12 08:26:47;;;;;;;9.00;5.45;;;3.50;99.90;;;;;;5010235;28;20056;-71
2023/03/12 08:29:14;;;;;;;9.18;5.63;;;3.60;99.90;;;;;;4994447;28;20445;-71
2023/03/12 08:31:40;;;;;;;8.60;5.65;;;3.60;99.90;;;;;;5004384;28;20053;-72
2023/03/12 08:34:07;;;;;;;9.15;5.88;;;3.60;99.90;;;;;;5009566;28;20049;-72
2023/03/12 08:36:34;;;;;;;10.30;6.77;;;3.70;99.90;;;;;;5007555;28;20030;-72
2023/03/12 08:39:01;;;;;;;11.88;7.90;;;3.70;99.90;;;;;;5003983;28;20324;-72
2023/03/12 08:41:28;;;;;;;11.10;6.43;;;3.70;99.90;;;;;;5011461;28;20999;-72
2023/03/12 08:43:55;;;;;;;14.98;8.32;;;3.80;99.90;;;;;;5008039;28;20044;-72
2023/03/12 08:46:21;;;;;;;10.45;7.10;;;3.80;99.90;;;;;;5007743;28;20048;-72
2023/03/12 08:48:48;;;;;;;11.95;8.18;;;3.80;99.90;;;;;;5003685;28;20048;-72
2023/03/12 08:51:14;;;;;;;15.23;8.05;;;3.90;99.90;;;;;;4993068;28;20037;-72
2023/03/12 08:53:40;;;;;;;13.05;7.28;;;3.90;99.90;;;;;;5008783;28;20045;-71
2023/03/12 08:56:07;;;;;;;11.80;6.77;;;3.90;99.90;;;;;;5008918;28;21692;-72
2023/03/12 08:58:33;;;;;;;12.00;7.10;;;3.90;99.90;;;;;;4999082;28;20409;-72
2023/03/12 09:01:00;;;;;;;12.18;8.30;;;4.00;99.90;;;;;;5003901;28;20488;-72
2023/03/12 09:03:26;;;;;;;13.45;8.82;;;4.00;99.90;;;;;;5006250;28;20538;-72
2023/03/12 09:06:13;;;;;;;14.40;9.10;;;4.10;99.90;;;;;;5011061;28;20042;-72
2023/03/12 09:08:40;;;;;;;10.55;8.60;;;4.10;99.90;;;;;;5002487;28;20041;-72
2023/03/12 09:11:09;;;;;;;9.77;7.00;;;4.10;99.90;;;;;;5009170;28;20747;-73
2023/03/12 09:13:35;;;;;;;15.68;9.27;;;4.20;99.90;;;;;;5026205;28;20044;-72
2023/03/12 09:16:03;;;;;;;17.02;9.32;;;4.20;99.90;;;;;;5006922;28;20052;-73
2023/03/12 09:18:30;;;;;;;14.07;8.65;;;4.30;99.90;;;;;;5002526;28;20605;-73
2023/03/12 09:20:57;;;;;;;11.38;8.02;;;4.30;99.90;;;;;;5012219;28;20034;-73
2023/03/12 09:23:24;;;;;;;10.45;8.02;;;4.30;99.90;;;;;;5006851;28;20036;-74
2023/03/12 09:25:51;;;;;;;15.68;11.52;;;4.30;99.90;;;;;;5023034;28;20056;-73
2023/03/12 09:28:19;;;;;;;13.38;10.65;;;4.40;99.90;;;;;;5002074;28;20573;-73
2023/03/12 09:30:46;;;;;;;12.15;9.52;;;4.40;99.90;;;;;;5011466;28;20034;-74
2023/03/12 09:33:17;;;;;;;9.85;7.32;;;4.50;99.90;;;;;;5016089;28;20115;-75
2023/03/12 09:35:43;;;;;;;15.82;11.65;;;4.50;99.90;;;;;;5009843;28;20044;-74
2023/03/12 09:38:14;;;;;;;16.95;12.20;;;4.60;99.90;;;;;;5006546;28;20793;-74
2023/03/12 09:40:45;;;;;;;12.60;9.45;;;4.70;99.90;;;;;;5016719;28;20052;-74
2023/03/12 09:43:35;;;;;;;10.98;7.95;;;4.70;99.90;;;;;;5010575;28;20418;-74
2023/03/12 09:46:02;;;;;;;11.93;8.57;;;4.80;99.90;;;;;;5011871;28;20052;-74
2023/03/12 09:48:29;;;;;;;12.75;9.65;;;4.90;99.90;;;;;;4984751;28;20400;-74
2023/03/12 09:50:55;;;;;;;15.85;10.30;;;4.90;99.90;;;;;;5009924;28;21093;-73
2023/03/12 09:53:39;;;;;;;14.30;10.80;;;5.00;99.90;;;;;;4994702;28;20053;-74
2023/03/12 09:56:12;;;;;;;15.13;10.77;;;5.10;99.90;;;;;;5002953;28;20060;-74
2023/03/12 09:58:41;;;;;;;13.35;10.00;;;5.20;99.90;;;;;;4983217;28;20060;-75
2023/03/12 10:01:19;;;;;;;13.68;9.75;;;5.30;99.90;;;;;;4992291;28;20037;-73
2023/03/12 10:03:54;;;;;;;12.77;9.30;;;5.40;99.90;;;;;;5010418;28;20037;-74
2023/03/12 10:06:24;;;;;;;16.23;10.80;;;5.50;99.90;;;;;;5006482;28;20037;-73
2023/03/12 10:09:35;;;;;;;11.40;9.18;;;5.50;99.90;;;;;;4998629;28;20060;-76
2023/03/12 10:12:19;;;;;;;13.20;11.05;;;5.60;99.90;;;;;;4994362;28;20057;-75
2023/03/12 10:14:59;;;;;;;19.02;14.27;;;5.60;99.90;;;;;;5012191;28;20037;-74
2023/03/12 10:17:57;;;;;;;28.17;17.48;;;5.70;99.90;;;;;;5000040;28;20500;-74
2023/03/12 10:20:59;;;;;;;19.98;15.02;;;5.80;99.90;;;;;;5007176;28;20396;-73
2023/03/12 10:23:27;;;;;;;17.30;12.40;;;5.80;99.90;;;;;;4998878;28;20043;-75
2023/03/12 10:25:53;;;;;;;17.10;12.90;;;6.00;99.90;;;;;;4998050;28;20475;-74
2023/03/12 10:28:39;;;;;;;23.75;16.77;;;6.10;99.90;;;;;;5008060;28;20044;-74
2023/03/12 10:31:25;;;;;;;25.15;15.27;;;6.10;99.90;;;;;;5011282;28;20041;-74
2023/03/12 10:33:56;;;;;;;22.13;15.57;;;6.20;99.90;;;;;;5002923;28;20045;-74
2023/03/12 10:36:39;;;;;;;21.85;15.25;;;6.20;99.90;;;;;;5010914;28;20597;-74
2023/03/12 10:39:18;;;;;;;25.58;16.88;;;6.30;99.90;;;;;;4996159;28;20423;-74
2023/03/12 10:41:47;;;;;;;26.17;16.85;;;6.30;99.90;;;;;;5016247;28;20520;-73
2023/03/12 10:44:22;;;;;;;19.65;14.30;;;6.30;99.90;;;;;;5013186;28;20032;-73
2023/03/12 10:46:52;;;;;;;22.35;16.58;;;6.40;99.90;;;;;;4993358;28;20037;-74
2023/03/12 10:49:22;;;;;;;24.08;16.48;;;6.50;99.90;;;;;;4976140;28;20507;-73
2023/03/12 10:52:02;;;;;;;18.60;14.27;;;6.60;99.90;;;;;;5029507;28;20649;-74
2023/03/12 10:54:39;;;;;;;27.42;18.50;;;6.70;99.90;;;;;;5012767;28;20055;-75
2023/03/12 10:57:06;;;;;;;29.75;19.80;;;6.80;99.90;;;;;;5025319;28;20053;-74
2023/03/12 10:59:35;;;;;;;28.13;20.20;;;6.80;99.90;;;;;;5000194;28;20028;-73
2023/03/12 11:02:23;;;;;;;34.63;24.10;;;6.90;99.90;;;;;;4991469;28;20041;-73
2023/03/12 11:04:50;;;;;;;32.97;21.40;;;7.00;99.90;;;;;;5007315;28;20460;-73
2023/03/12 11:07:22;;;;;;;30.38;20.73;;;7.10;99.90;;;;;;5010244;28;20025;-73
2023/03/12 11:10:08;;;;;;;34.67;22.25;;;7.20;99.90;;;;;;5006782;28;20041;-74
2023/03/12 11:12:38;;;;;;;38.78;23.00;;;7.30;99.90;;;;;;4998479;28;24039;-73
2023/03/12 11:15:41;;;;;;;33.53;22.45;;;7.30;99.90;;;;;;5013216;28;20037;-72
2023/03/12 11:18:16;;;;;;;32.08;21.30;;;7.40;99.90;;;;;;5005065;28;20665;-73
2023/03/12 11:20:43;;;;;;;30.05;22.55;;;7.40;99.90;;;;;;5010414;28;20515;-72
2023/03/12 11:23:28;;;;;;;30.95;23.65;;;7.50;99.90;;;;;;5015080;28;20738;-72
2023/03/12 11:26:01;;;;;;;30.95;22.25;;;7.50;99.90;;;;;;4992321;28;20070;-73
2023/03/12 11:28:38;;;;;;;41.53;25.70;;;7.60;99.90;;;;;;5002433;28;20481;-73
2023/03/12 11:31:09;;;;;;;37.10;24.48;;;7.70;99.90;;;;;;5011055;28;20056;-73
2023/03/12 11:33:36;;;;;;;34.23;25.27;;;7.80;99.90;;;;;;5012698;28;20489;-73
2023/03/12 11:36:30;;;;;;;47.42;28.27;;;7.80;99.90;;;;;;5011711;28;20032;-73
2023/03/12 11:39:03;;;;;;;32.90;23.30;;;7.90;99.90;;;;;;5000047;28;20050;-74
2023/03/12 11:41:53;;;;;;;34.22;22.73;;;8.00;99.90;;;;;;5010328;28;20052;-73
2023/03/12 11:45:04;;;;;;;38.78;24.77;;;8.00;99.90;;;;;;5010306;28;20076;-73
2023/03/12 11:47:42;;;;;;;40.67;24.05;;;8.10;99.90;;;;;;5011877;28;20554;-74
2023/03/12 11:50:14;;;;;;;35.13;22.48;;;8.20;99.90;;;;;;5005911;28;20040;-73
2023/03/12 11:52:53;;;;;;;36.78;22.35;;;8.40;99.90;;;;;;5008346;28;21209;-73
2023/03/12 11:55:55;;;;;;;39.38;22.73;;;8.50;99.90;;;;;;5024753;28;20072;-73
2023/03/12 11:58:24;;;;;;;33.38;20.85;;;8.50;99.90;;;;;;5020246;28;20432;-72
2023/03/12 12:01:18;;;;;;;31.33;19.02;;;8.60;99.90;;;;;;5010629;28;20400;-72
2023/03/12 12:03:55;;;;;;;29.13;17.48;;;8.70;99.90;;;;;;5009940;28;20045;-73
2023/03/12 12:06:37;;;;;;;29.50;16.85;;;8.80;99.90;;;;;;5008138;28;20048;-73
2023/03/12 12:09:48;;;;;;;32.10;18.30;;;8.90;99.90;;;;;;5002489;28;21136;-72
2023/03/12 12:12:49;;;;;;;24.50;14.70;;;9.00;99.90;;;;;;4982194;28;20787;-73
2023/03/12 12:15:36;;;;;;;32.42;15.55;;;9.10;99.90;;;;;;5011288;28;20059;-72
2023/03/12 12:18:22;;;;;;;38.90;17.90;;;9.20;99.90;;;;;;4989997;28;20041;-72
2023/03/12 12:21:12;;;;;;;35.38;15.68;;;9.40;99.90;;;;;;5009265;28;20044;-72
2023/03/12 12:24:00;;;;;;;35.30;14.45;;;9.50;99.90;;;;;;5004885;28;20048;-73
2023/03/12 12:26:59;;;;;;;29.00;12.20;;;9.60;99.90;;;;;;5011119;28;20041;-73
2023/03/12 12:29:34;;;;;;;20.70;8.68;;;9.60;99.90;;;;;;4986176;28;20049;-73
2023/03/12 12:32:03;;;;;;;25.88;10.32;;;9.70;99.90;;;;;;5008560;28;20045;-72
2023/03/12 12:35:03;;;;;;;25.52;10.25;;;9.80;99.90;;;;;;4989932;28;20029;-72
2023/03/12 12:37:41;;;;;;;22.50;9.05;;;9.80;99.90;;;;;;4981238;28;20048;-72
2023/03/12 12:40:20;;;;;;;29.17;10.68;;;9.80;99.90;;;;;;5003609;28;20053;-72
2023/03/12 12:43:18;;;;;;;31.70;10.55;;;9.90;99.90;;;;;;5009371;28;20041;-72
2023/03/12 12:45:48;;;;;;;42.13;10.40;;;9.90;99.90;;;;;;5007176;28;20032;-72
2023/03/12 12:48:43;;;;;;;39.50;9.77;;;9.80;99.90;;;;;;5005712;28;20049;-73
2023/03/12 12:51:10;;;;;;;37.22;9.80;;;9.80;99.90;;;;;;5024884;28;20052;-72
2023/03/12 12:54:11;;;;;;;29.45;7.47;;;9.80;99.90;;;;;;5006674;28;20057;-72
2023/03/12 12:57:04;;;;;;;30.27;8.10;;;9.80;99.90;;;;;;5004784;28;20048;-72
2023/03/12 12:59:37;;;;;;;43.13;9.80;;;9.80;99.90;;;;;;4999311;28;20033;-72
2023/03/12 13:02:11;;;;;;;49.20;10.02;;;9.90;99.90;;;;;;4991369;28;20037;-72
2023/03/12 13:04:38;;;;;;;34.17;9.05;;;10.00;99.90;;;;;;4990381;28;20064;-71
2023/03/12 13:07:11;;;;;;;32.58;7.68;;;10.00;99.90;;;;;;5009849;28;20463;-73
2023/03/12 13:09:51;;;;;;;36.90;6.63;;;10.00;99.90;;;;;;5003473;28;20523;-72